Terminal Aerodrome Forecast
Issued by NWS Sterling, VA

Current Version | Previous Version | Graphics & Text | Print | Product List | Glossary On
Versions: 1 2 3 4 5 6 7 8 9 10 11 12 13 14 15 16 17 18 19 20 21 22 23 24
000
FTUS41 KLWX 171501 CCA
TAFDCA
TAF COR
KDCA 171501Z 1715/1812 20006KT P6SM SCT025 BKN090
     FM171600 23009KT P6SM SCT040 BKN100
     FM171800 25007KT 6SM -SHRA BKN040
     FM180100 30004KT P6SM BKN040
     FM180200 30004KT P6SM SCT040
     FM180600 32005KT P6SM FEW250=

USA.gov is the U.S. government's official web portal to all federal, state and local government web resources and services.